Time;durP1;ratioP1;P1;durP2;ratioP2;P2;SDS_P1;SDS_P2;PMS_P1;PMS_P2;Temp;Humidity;BMP_temperature;BMP_pressure;BME280_temperature;BME280_humidity;BME280_pressure;Samples;Min_cycle;Max_cycle;Signal;HPM_P1;HPM_P2
2021/07/08 00:02:01;;;;;;;5.20;3.97;;;19.60;66.00;;;;;;5118927;28;20535;-85
2021/07/08 00:04:28;;;;;;;8.23;4.80;;;19.50;66.00;;;;;;5121281;28;20245;-85
2021/07/08 00:06:54;;;;;;;8.40;4.65;;;19.40;66.20;;;;;;5120018;28;20197;-85
2021/07/08 00:09:19;;;;;;;4.67;3.90;;;19.30;66.50;;;;;;5121805;28;20281;-86
2021/07/08 00:11:45;;;;;;;4.27;3.70;;;19.30;66.80;;;;;;5121599;28;20195;-85
2021/07/08 00:14:11;;;;;;;10.73;4.80;;;19.50;66.70;;;;;;5118919;28;20691;-85
2021/07/08 00:16:37;;;;;;;4.63;4.23;;;19.50;66.20;;;;;;5120596;28;20163;-85
2021/07/08 00:19:05;;;;;;;9.90;4.70;;;19.50;65.80;;;;;;5120516;28;20181;-86
2021/07/08 00:21:30;;;;;;;17.20;6.00;;;19.70;65.40;;;;;;5117745;28;20199;-86
2021/07/08 00:23:56;;;;;;;7.50;5.03;;;19.70;65.30;;;;;;5098790;28;20262;-85
2021/07/08 00:26:22;;;;;;;12.63;4.63;;;19.60;65.70;;;;;;5098479;28;20229;-85
2021/07/08 00:28:48;;;;;;;5.73;4.30;;;19.70;65.90;;;;;;5098292;28;20410;-86
2021/07/08 00:31:14;;;;;;;10.80;4.80;;;19.60;66.00;;;;;;5097932;28;20860;-85
2021/07/08 00:33:39;;;;;;;9.57;5.30;;;19.60;65.80;;;;;;5098132;28;20659;-86
2021/07/08 00:36:05;;;;;;;8.37;4.63;;;19.60;66.00;;;;;;5098018;28;20167;-86
2021/07/08 00:38:31;;;;;;;9.77;4.83;;;19.60;66.00;;;;;;5098169;28;20172;-86
2021/07/08 00:40:57;;;;;;;6.87;3.80;;;19.50;66.00;;;;;;5097177;28;20671;-86
2021/07/08 00:43:27;;;;;;;8.93;5.40;;;19.50;66.40;;;;;;5101612;28;20414;-85
2021/07/08 00:45:53;;;;;;;7.18;5.18;;;19.30;67.00;;;;;;5101259;28;20179;-85
2021/07/08 00:48:19;;;;;;;7.33;5.50;;;19.20;67.40;;;;;;5099839;28;20192;-85
2021/07/08 00:50:48;;;;;;;8.73;5.03;;;19.10;67.80;;;;;;5118659;28;20409;-85
2021/07/08 00:53:15;;;;;;;15.10;5.43;;;19.10;67.80;;;;;;5117796;28;20231;-86
2021/07/08 00:55:45;;;;;;;5.85;4.40;;;19.00;67.80;;;;;;5117871;28;20270;-85
2021/07/08 00:58:14;;;;;;;5.63;4.60;;;19.00;67.90;;;;;;5118342;28;20171;-85
2021/07/08 01:00:40;;;;;;;7.13;5.90;;;19.10;67.90;;;;;;5118785;28;20167;-86
2021/07/08 01:03:10;;;;;;;7.55;4.45;;;19.30;67.40;;;;;;5117546;28;20211;-86
2021/07/08 01:05:41;;;;;;;8.95;4.70;;;19.40;67.10;;;;;;5118677;28;20229;-85
2021/07/08 01:08:09;;;;;;;6.50;5.05;;;19.30;67.10;;;;;;5117778;28;20179;-85
2021/07/08 01:10:34;;;;;;;8.50;4.47;;;19.40;67.00;;;;;;5118178;28;20187;-86
2021/07/08 01:13:01;;;;;;;5.23;4.70;;;19.50;66.70;;;;;;5117399;28;20207;-85
2021/07/08 01:15:27;;;;;;;7.18;6.35;;;19.60;66.70;;;;;;5118320;28;20546;-85
2021/07/08 01:17:53;;;;;;;14.00;5.68;;;19.50;66.70;;;;;;5117513;28;20175;-86
2021/07/08 01:20:22;;;;;;;6.70;5.23;;;19.50;66.70;;;;;;5117046;28;20586;-86
2021/07/08 01:22:48;;;;;;;10.05;5.88;;;19.70;66.50;;;;;;5105031;28;20438;-85
2021/07/08 01:25:16;;;;;;;12.45;5.38;;;19.70;66.40;;;;;;5098097;28;20186;-85
2021/07/08 01:27:43;;;;;;;6.88;5.68;;;19.60;66.40;;;;;;5096878;28;20176;-86
2021/07/08 01:30:11;;;;;;;9.55;5.80;;;19.40;66.80;;;;;;5096341;28;20183;-85
2021/07/08 01:32:38;;;;;;;9.27;5.30;;;19.10;67.70;;;;;;5095785;28;20554;-85
2021/07/08 01:35:06;;;;;;;8.43;5.55;;;19.00;69.20;;;;;;5096939;28;20293;-85
2021/07/08 01:37:32;;;;;;;10.95;5.40;;;18.80;68.90;;;;;;5096701;28;20518;-86
2021/07/08 01:40:00;;;;;;;12.63;5.03;;;19.00;69.20;;;;;;5107951;28;20173;-85
2021/07/08 01:42:26;;;;;;;8.60;5.30;;;19.00;68.90;;;;;;5097460;28;20516;-86
2021/07/08 01:44:53;;;;;;;5.32;4.75;;;18.90;69.00;;;;;;5097739;28;20191;-86
2021/07/08 01:47:19;;;;;;;12.55;5.40;;;18.90;69.10;;;;;;5097382;28;20686;-84
2021/07/08 01:49:45;;;;;;;6.10;4.47;;;19.10;68.80;;;;;;5109394;28;20221;-86
2021/07/08 01:52:11;;;;;;;7.03;5.43;;;19.10;68.50;;;;;;5114993;28;20932;-86
2021/07/08 01:54:37;;;;;;;10.70;5.37;;;19.00;68.50;;;;;;5116686;28;20271;-86
2021/07/08 01:57:02;;;;;;;9.93;5.90;;;19.10;68.50;;;;;;5115435;28;20650;-86
2021/07/08 01:59:28;;;;;;;9.43;5.70;;;19.00;68.60;;;;;;5107143;28;20439;-86
2021/07/08 02:01:54;;;;;;;6.10;5.07;;;18.80;69.00;;;;;;5095153;28;20203;-85
2021/07/08 02:04:19;;;;;;;5.60;5.00;;;18.80;69.40;;;;;;5094132;28;20634;-85
2021/07/08 02:06:45;;;;;;;9.77;5.30;;;18.70;69.50;;;;;;5097348;28;20183;-86
2021/07/08 02:09:11;;;;;;;11.20;5.63;;;18.70;69.80;;;;;;5096189;28;20184;-85
2021/07/08 02:11:37;;;;;;;11.23;5.20;;;18.70;69.90;;;;;;5097109;28;20631;-85
2021/07/08 02:14:04;;;;;;;6.80;4.70;;;18.70;69.90;;;;;;5097316;28;20179;-86
2021/07/08 02:16:30;;;;;;;6.80;6.03;;;18.70;70.00;;;;;;5095993;28;20176;-85
2021/07/08 02:18:57;;;;;;;8.60;4.97;;;18.70;69.90;;;;;;5097599;28;20176;-86
2021/07/08 02:21:23;;;;;;;8.38;4.63;;;18.70;69.80;;;;;;5096004;28;20483;-86
2021/07/08 02:23:48;;;;;;;9.10;5.00;;;18.80;69.70;;;;;;5097556;28;20172;-85
2021/07/08 02:26:14;;;;;;;4.80;4.30;;;19.00;69.20;;;;;;5096162;28;20414;-86
2021/07/08 02:28:40;;;;;;;7.13;5.20;;;19.10;68.70;;;;;;5096472;28;20199;-85
2021/07/08 02:31:06;;;;;;;6.93;4.97;;;19.20;68.20;;;;;;5095893;28;20195;-86
2021/07/08 02:33:33;;;;;;;9.77;5.00;;;19.40;68.10;;;;;;5104280;28;20462;-85
2021/07/08 02:35:58;;;;;;;8.45;5.35;;;19.40;67.80;;;;;;5096450;28;20545;-86
2021/07/08 02:38:24;;;;;;;10.70;5.60;;;19.40;67.70;;;;;;5095994;28;20254;-85
2021/07/08 02:40:51;;;;;;;8.37;5.23;;;19.20;67.50;;;;;;5096442;28;20176;-85
2021/07/08 02:43:16;;;;;;;12.90;6.28;;;19.10;67.90;;;;;;5095530;28;20175;-85
2021/07/08 02:45:43;;;;;;;11.03;5.53;;;19.10;68.10;;;;;;5095705;28;20175;-85
2021/07/08 02:48:12;;;;;;;11.35;5.40;;;19.10;68.20;;;;;;5095078;28;20418;-86
2021/07/08 02:50:42;;;;;;;7.70;5.15;;;19.10;68.30;;;;;;5076141;28;20263;-86
2021/07/08 02:53:09;;;;;;;7.53;5.68;;;19.10;68.30;;;;;;5075058;28;20214;-86
2021/07/08 02:55:36;;;;;;;11.10;5.05;;;19.20;68.30;;;;;;5075297;28;20181;-85
2021/07/08 02:58:03;;;;;;;6.30;4.70;;;19.20;68.10;;;;;;5074926;28;20516;-85
2021/07/08 03:00:29;;;;;;;7.32;5.70;;;19.20;67.80;;;;;;5091927;28;20570;-86
2021/07/08 03:02:56;;;;;;;8.77;4.75;;;19.30;67.80;;;;;;5097382;28;20188;-85
2021/07/08 03:05:23;;;;;;;7.10;5.22;;;19.30;67.80;;;;;;5095484;28;20601;-86
2021/07/08 03:07:50;;;;;;;6.28;5.00;;;19.30;67.80;;;;;;5095260;28;20261;-85
2021/07/08 03:10:19;;;;;;;5.90;4.65;;;19.50;67.70;;;;;;5094758;28;20207;-86
2021/07/08 03:12:44;;;;;;;9.50;5.65;;;19.60;67.00;;;;;;5095606;28;20203;-86
2021/07/08 03:15:12;;;;;;;8.20;5.00;;;19.70;66.50;;;;;;5094754;28;20191;-86
2021/07/08 03:17:39;;;;;;;5.05;4.55;;;19.80;66.00;;;;;;5095015;28;20412;-85
2021/07/08 03:20:11;;;;;;;8.15;4.30;;;19.80;65.50;;;;;;5095825;28;20176;-85
2021/07/08 03:22:41;;;;;;;5.80;4.63;;;19.80;65.70;;;;;;5095515;28;20294;-86
2021/07/08 03:25:09;;;;;;;6.22;4.65;;;19.80;65.80;;;;;;5097302;28;20187;-86
2021/07/08 03:27:35;;;;;;;5.43;4.68;;;19.90;65.70;;;;;;5100385;28;20195;-86
2021/07/08 03:30:06;;;;;;;7.53;4.90;;;19.90;65.50;;;;;;5098662;28;20222;-85
2021/07/08 03:32:32;;;;;;;10.93;4.85;;;20.10;65.40;;;;;;5095804;28;20195;-86
2021/07/08 03:34:57;;;;;;;8.00;4.50;;;20.10;65.20;;;;;;5094348;28;20561;-85
2021/07/08 03:37:23;;;;;;;7.47;5.20;;;20.00;65.40;;;;;;5094985;28;20170;-86
2021/07/08 03:39:49;;;;;;;8.23;5.20;;;20.20;65.60;;;;;;5096780;28;20209;-86
2021/07/08 03:42:15;;;;;;;5.27;4.77;;;20.00;65.70;;;;;;5095093;28;20256;-85
2021/07/08 03:44:41;;;;;;;5.73;5.10;;;20.00;66.20;;;;;;5096447;28;20441;-86
2021/07/08 03:47:06;;;;;;;6.40;4.73;;;19.90;66.50;;;;;;5097095;28;20176;-85
2021/07/08 03:49:32;;;;;;;6.33;4.00;;;19.80;66.80;;;;;;5106237;28;20175;-85
2021/07/08 03:51:58;;;;;;;7.87;4.60;;;19.80;67.20;;;;;;5114606;28;20198;-85
2021/07/08 03:54:24;;;;;;;7.77;4.50;;;19.80;67.20;;;;;;5117116;28;20177;-86
2021/07/08 03:56:49;;;;;;;8.10;4.93;;;19.80;67.00;;;;;;5116263;28;20186;-86
2021/07/08 03:59:15;;;;;;;5.77;4.80;;;19.80;67.10;;;;;;5109000;28;20184;-85
2021/07/08 04:01:41;;;;;;;5.23;4.67;;;19.80;67.20;;;;;;5093598;28;20199;-85
2021/07/08 04:04:07;;;;;;;6.53;4.80;;;19.80;67.40;;;;;;5094941;28;20180;-85
2021/07/08 04:06:33;;;;;;;7.97;5.47;;;19.90;67.30;;;;;;5094037;28;20180;-85
2021/07/08 04:08:59;;;;;;;8.90;4.90;;;19.80;67.40;;;;;;5094125;28;20186;-86
2021/07/08 04:11:25;;;;;;;11.40;5.33;;;19.90;67.30;;;;;;5094413;28;20562;-85
2021/07/08 04:13:50;;;;;;;10.13;5.20;;;19.70;67.40;;;;;;5095048;28;20685;-85
2021/07/08 04:16:16;;;;;;;9.80;4.53;;;19.80;67.60;;;;;;5093686;28;20171;-85
2021/07/08 04:18:42;;;;;;;6.63;4.60;;;19.90;67.50;;;;;;5094647;28;20180;-85
2021/07/08 04:21:08;;;;;;;4.97;4.47;;;19.90;67.10;;;;;;5093724;28;20191;-86
2021/07/08 04:23:33;;;;;;;6.67;5.63;;;19.80;67.20;;;;;;5102424;28;20247;-86
2021/07/08 04:25:59;;;;;;;14.60;7.77;;;19.90;67.40;;;;;;5098491;28;20180;-85
2021/07/08 04:28:25;;;;;;;11.60;5.60;;;19.80;67.30;;;;;;5093871;28;20175;-86
2021/07/08 04:30:51;;;;;;;6.53;5.63;;;19.80;67.50;;;;;;5091978;28;20421;-86
2021/07/08 04:33:17;;;;;;;9.73;5.33;;;19.70;67.80;;;;;;5092586;28;20278;-86
2021/07/08 04:35:44;;;;;;;10.65;5.20;;;19.60;67.80;;;;;;5093093;28;20172;-86
2021/07/08 04:38:13;;;;;;;6.63;4.70;;;19.60;67.80;;;;;;5094589;28;20264;-86
2021/07/08 04:40:40;;;;;;;14.07;5.90;;;19.70;67.60;;;;;;5091741;28;20194;-86
2021/07/08 04:43:08;;;;;;;9.40;5.00;;;19.70;67.30;;;;;;5094634;28;20609;-87
2021/07/08 04:45:34;;;;;;;9.57;4.68;;;19.90;66.80;;;;;;5095938;28;20297;-86
2021/07/08 04:48:00;;;;;;;6.15;4.95;;;20.10;66.00;;;;;;5095751;28;20184;-85
2021/07/08 04:50:26;;;;;;;8.07;4.55;;;20.00;65.70;;;;;;5116838;28;20175;-86
2021/07/08 04:52:53;;;;;;;10.13;4.80;;;20.10;65.80;;;;;;5119760;28;20203;-85
2021/07/08 04:55:23;;;;;;;23.50;6.20;;;20.30;65.80;;;;;;5119491;28;20405;-86
2021/07/08 04:57:50;;;;;;;9.30;5.78;;;20.60;64.80;;;;;;5118435;28;20617;-85
2021/07/08 05:00:21;;;;;;;14.20;5.63;;;20.70;64.20;;;;;;5104194;28;20226;-86
2021/07/08 05:02:48;;;;;;;7.90;5.53;;;20.90;63.70;;;;;;5097732;28;20674;-86
2021/07/08 05:05:14;;;;;;;5.18;4.50;;;21.00;63.30;;;;;;5097541;28;20184;-85
2021/07/08 05:07:40;;;;;;;15.35;5.32;;;21.10;63.00;;;;;;5097825;28;20180;-86
2021/07/08 05:10:13;;;;;;;8.18;5.47;;;21.10;63.00;;;;;;5097860;28;20191;-85
2021/07/08 05:12:39;;;;;;;12.48;5.00;;;21.20;62.60;;;;;;5096650;28;20265;-86
2021/07/08 05:15:07;;;;;;;9.45;5.40;;;21.30;62.20;;;;;;5097226;28;20172;-86
2021/07/08 05:17:33;;;;;;;9.20;4.50;;;21.20;62.00;;;;;;5100396;28;20237;-85
2021/07/08 05:19:59;;;;;;;8.73;4.45;;;21.30;61.70;;;;;;5098314;28;20537;-86
2021/07/08 05:22:25;;;;;;;8.03;5.77;;;21.50;61.20;;;;;;5096537;28;20276;-85
2021/07/08 05:24:51;;;;;;;5.93;3.77;;;22.00;60.70;;;;;;5097133;28;20418;-85
2021/07/08 05:27:17;;;;;;;8.93;5.20;;;22.90;59.20;;;;;;5097702;28;20410;-86
2021/07/08 05:29:44;;;;;;;13.70;5.30;;;23.80;56.70;;;;;;5099069;28;20225;-86
2021/07/08 05:32:13;;;;;;;6.80;4.07;;;24.40;53.00;;;;;;5096296;28;21046;-86
2021/07/08 05:34:39;;;;;;;8.87;4.10;;;24.70;51.90;;;;;;5097236;28;20428;-86
2021/07/08 05:37:05;;;;;;;4.97;3.80;;;25.40;50.50;;;;;;5096704;28;20459;-86
2021/07/08 05:39:31;;;;;;;5.57;3.67;;;26.50;48.20;;;;;;5096385;28;20564;-86
2021/07/08 05:41:57;;;;;;;4.60;4.00;;;27.70;44.80;;;;;;5095319;28;20446;-86
2021/07/08 05:44:23;;;;;;;6.07;5.20;;;28.80;41.60;;;;;;5095782;28;20542;-87
2021/07/08 05:46:48;;;;;;;7.97;4.10;;;30.00;39.60;;;;;;5096081;28;20175;-86
2021/07/08 05:49:14;;;;;;;6.83;5.13;;;30.80;36.90;;;;;;5097421;28;20175;-86
2021/07/08 05:51:40;;;;;;;6.10;4.73;;;31.60;34.60;;;;;;5097521;28;20195;-86
2021/07/08 05:54:06;;;;;;;9.13;5.30;;;31.80;33.60;;;;;;5097374;28;20266;-86
2021/07/08 05:56:32;;;;;;;5.67;5.13;;;31.70;33.60;;;;;;5096159;28;20409;-86
2021/07/08 05:58:58;;;;;;;5.53;4.90;;;32.00;33.40;;;;;;5096202;28;20172;-86
2021/07/08 06:01:23;;;;;;;8.80;5.07;;;31.80;32.60;;;;;;5096656;28;20994;-86
2021/07/08 06:03:50;;;;;;;8.57;6.40;;;31.30;33.10;;;;;;5095550;28;20200;-86
2021/07/08 06:06:19;;;;;;;7.90;6.43;;;30.80;34.10;;;;;;5095628;28;20172;-86
2021/07/08 06:08:45;;;;;;;7.40;6.17;;;30.60;34.90;;;;;;5095714;28;20384;-86
2021/07/08 06:11:12;;;;;;;7.97;6.40;;;30.50;35.60;;;;;;5096230;28;20453;-86
2021/07/08 06:13:38;;;;;;;10.50;6.53;;;30.80;35.60;;;;;;5104186;28;20474;-85
2021/07/08 06:16:04;;;;;;;7.53;5.83;;;31.30;35.20;;;;;;5097163;28;20485;-86
2021/07/08 06:18:30;;;;;;;8.33;6.40;;;32.00;34.40;;;;;;5098798;28;20183;-86
2021/07/08 06:20:57;;;;;;;6.73;6.13;;;32.70;32.80;;;;;;5096471;28;20433;-86
2021/07/08 06:23:22;;;;;;;9.73;5.90;;;33.00;31.80;;;;;;5096251;28;20182;-86
2021/07/08 06:25:49;;;;;;;8.83;5.53;;;32.70;31.30;;;;;;5097849;28;20500;-86
2021/07/08 06:28:15;;;;;;;9.10;4.93;;;33.00;31.20;;;;;;5096959;28;20225;-86
2021/07/08 06:30:42;;;;;;;8.53;4.00;;;32.90;30.10;;;;;;5096200;28;20406;-86
2021/07/08 06:33:08;;;;;;;5.17;4.07;;;33.10;30.00;;;;;;5098788;28;20453;-86
2021/07/08 06:35:34;;;;;;;4.47;3.90;;;32.90;30.00;;;;;;5096337;28;20456;-86
2021/07/08 06:37:59;;;;;;;8.90;5.03;;;32.20;30.00;;;;;;5095914;28;20418;-85
2021/07/08 06:40:25;;;;;;;8.63;5.10;;;31.70;30.20;;;;;;5096712;28;20168;-86
2021/07/08 06:42:51;;;;;;;7.50;4.10;;;31.80;31.10;;;;;;5096290;28;20211;-86
2021/07/08 06:45:17;;;;;;;12.57;5.43;;;31.90;31.30;;;;;;5095762;28;20182;-86
2021/07/08 06:47:50;;;;;;;7.57;5.40;;;32.30;31.30;;;;;;5097094;28;20179;-86
2021/07/08 06:50:16;;;;;;;8.77;5.20;;;31.70;31.00;;;;;;5114422;28;20496;-87
2021/07/08 06:52:43;;;;;;;6.47;4.00;;;31.80;31.00;;;;;;5117553;28;20564;-86
2021/07/08 06:55:09;;;;;;;6.20;4.93;;;31.70;31.40;;;;;;5117288;28;20421;-86
2021/07/08 06:57:35;;;;;;;5.83;4.27;;;31.00;32.50;;;;;;5098352;28;20425;-86
2021/07/08 07:00:01;;;;;;;5.90;4.63;;;30.30;33.00;;;;;;5116014;28;20959;-86
2021/07/08 07:02:27;;;;;;;8.77;4.87;;;29.80;33.80;;;;;;5115219;28;20682;-86
2021/07/08 07:04:52;;;;;;;7.50;4.30;;;29.30;35.60;;;;;;5115951;28;20417;-85
2021/07/08 07:07:18;;;;;;;6.57;4.20;;;28.80;36.40;;;;;;5119719;28;20660;-86
2021/07/08 07:09:44;;;;;;;5.97;3.97;;;28.40;36.80;;;;;;5116881;28;20589;-86
2021/07/08 07:12:10;;;;;;;13.30;4.53;;;28.20;37.50;;;;;;5116132;28;20211;-86
2021/07/08 07:14:36;;;;;;;11.10;5.53;;;27.40;38.70;;;;;;5115750;28;20531;-86
2021/07/08 07:17:02;;;;;;;12.30;6.17;;;27.20;40.40;;;;;;5118500;28;20384;-85
2021/07/08 07:19:28;;;;;;;9.93;5.37;;;27.10;40.40;;;;;;5116263;28;20171;-86
2021/07/08 07:22:00;;;;;;;8.50;4.37;;;27.10;41.40;;;;;;5117240;28;20436;-86
2021/07/08 07:24:26;;;;;;;7.30;4.30;;;27.20;40.70;;;;;;5116745;28;20425;-86
2021/07/08 07:26:52;;;;;;;4.97;4.23;;;26.50;41.30;;;;;;5114951;28;20479;-86
2021/07/08 07:29:17;;;;;;;4.07;3.67;;;25.80;42.20;;;;;;5114365;28;20501;-86
2021/07/08 07:31:43;;;;;;;11.33;4.57;;;25.70;43.30;;;;;;5115170;28;20199;-86
2021/07/08 07:34:10;;;;;;;14.77;6.30;;;25.60;44.00;;;;;;5114696;28;20258;-85
2021/07/08 07:36:35;;;;;;;12.00;4.53;;;25.00;45.30;;;;;;5118269;28;20198;-85
2021/07/08 07:39:02;;;;;;;4.73;3.77;;;24.80;46.30;;;;;;5096404;28;20936;-85
2021/07/08 07:41:28;;;;;;;7.00;3.67;;;24.30;47.00;;;;;;5096283;28;20207;-86
2021/07/08 07:43:53;;;;;;;3.87;3.50;;;24.00;47.70;;;;;;5095682;28;20414;-86
2021/07/08 07:46:19;;;;;;;7.53;3.77;;;23.80;48.80;;;;;;5097144;28;20698;-85
2021/07/08 07:48:45;;;;;;;8.60;4.57;;;23.70;49.30;;;;;;5101318;28;20197;-86
2021/07/08 07:51:11;;;;;;;5.23;3.87;;;23.70;50.30;;;;;;5115923;28;20199;-86
2021/07/08 07:53:37;;;;;;;8.33;5.50;;;23.80;50.50;;;;;;5116568;28;20528;-85
2021/07/08 07:56:03;;;;;;;6.40;4.93;;;23.70;49.80;;;;;;5116397;28;20266;-86
2021/07/08 07:58:30;;;;;;;14.83;7.13;;;23.50;50.40;;;;;;5116870;28;20167;-85
2021/07/08 08:00:57;;;;;;;7.00;5.40;;;23.60;50.90;;;;;;5116159;28;20505;-86
2021/07/08 08:03:23;;;;;;;5.50;4.60;;;23.70;51.10;;;;;;5130224;28;20490;-85
2021/07/08 08:05:57;;;;;;;11.03;5.30;;;23.80;50.70;;;;;;5117414;28;20881;-86
2021/07/08 08:08:30;;;;;;;6.20;4.13;;;24.00;50.30;;;;;;5116888;28;20261;-86
2021/07/08 08:10:57;;;;;;;9.00;4.63;;;24.20;50.10;;;;;;5116579;28;20979;-86
2021/07/08 08:13:24;;;;;;;6.00;5.30;;;24.30;48.80;;;;;;5118871;28;21026;-85
2021/07/08 08:15:51;;;;;;;10.03;6.00;;;24.50;48.50;;;;;;5118712;28;20417;-85
2021/07/08 08:18:18;;;;;;;11.30;5.70;;;24.20;48.60;;;;;;5116732;28;20413;-85
2021/07/08 08:20:44;;;;;;;11.30;5.90;;;24.10;49.10;;;;;;5117714;28;20413;-86
2021/07/08 08:23:10;;;;;;;13.13;5.97;;;24.10;49.90;;;;;;5122342;28;20415;-86
2021/07/08 08:25:36;;;;;;;10.87;5.83;;;24.00;49.30;;;;;;5123854;28;20433;-86
2021/07/08 08:28:01;;;;;;;8.07;6.00;;;24.10;49.30;;;;;;5125232;28;20568;-86
2021/07/08 08:30:28;;;;;;;9.67;5.83;;;24.00;48.60;;;;;;5123502;28;20420;-86
2021/07/08 08:32:54;;;;;;;9.13;5.53;;;24.00;49.60;;;;;;5123704;28;20217;-86
2021/07/08 08:35:20;;;;;;;6.47;4.83;;;24.10;48.60;;;;;;5124878;28;20495;-85
2021/07/08 08:37:46;;;;;;;7.47;5.50;;;24.20;47.50;;;;;;5114805;28;20844;-86
2021/07/08 08:40:14;;;;;;;13.73;5.07;;;24.30;47.00;;;;;;5105004;28;20183;-86
2021/07/08 08:42:45;;;;;;;6.40;5.33;;;24.20;47.30;;;;;;5106533;28;20666;-85
2021/07/08 08:45:14;;;;;;;6.77;5.20;;;23.90;48.30;;;;;;5109486;28;20776;-86
2021/07/08 08:48:01;;;;;;;9.47;6.13;;;24.40;47.20;;;;;;5109982;28;20410;-86
2021/07/08 08:50:32;;;;;;;15.40;7.10;;;25.00;46.80;;;;;;5128430;28;20913;-85
2021/07/08 08:52:59;;;;;;;12.10;6.07;;;24.90;46.40;;;;;;5132093;28;20464;-84
2021/07/08 08:55:25;;;;;;;10.93;5.97;;;25.20;46.60;;;;;;5131779;28;20447;-85
2021/07/08 08:57:51;;;;;;;8.80;7.00;;;25.40;46.30;;;;;;5133122;28;20413;-85
2021/07/08 09:00:23;;;;;;;8.70;5.80;;;25.20;45.80;;;;;;5130985;28;20466;-85
2021/07/08 09:03:07;;;;;;;11.10;7.83;;;25.70;44.90;;;;;;5133114;28;20817;-85
2021/07/08 09:05:34;;;;;;;14.80;6.97;;;25.70;45.00;;;;;;5131603;28;20826;-85
2021/07/08 09:08:22;;;;;;;7.73;6.70;;;26.00;45.50;;;;;;5128936;28;20473;-85
2021/07/08 09:11:18;;;;;;;12.50;7.37;;;25.90;45.20;;;;;;5128434;28;20434;-86
2021/07/08 09:13:45;;;;;;;11.63;7.33;;;25.50;45.20;;;;;;5135923;28;20437;-84
2021/07/08 09:16:12;;;;;;;14.07;8.87;;;25.40;45.80;;;;;;5112572;28;20429;-84
2021/07/08 09:18:39;;;;;;;12.10;8.07;;;25.10;45.70;;;;;;5113873;28;20513;-85
2021/07/08 09:21:15;;;;;;;12.27;7.23;;;25.00;46.30;;;;;;5113475;28;20445;-85
2021/07/08 09:24:21;;;;;;;12.43;8.70;;;24.80;47.20;;;;;;5111258;28;20426;-85
2021/07/08 09:27:03;;;;;;;9.23;7.27;;;24.60;46.80;;;;;;5106187;28;20417;-85
2021/07/08 09:29:30;;;;;;;10.60;6.67;;;24.50;46.50;;;;;;5106025;28;20406;-85
2021/07/08 09:32:06;;;;;;;12.17;7.03;;;24.50;47.60;;;;;;5100489;28;20561;-85
2021/07/08 09:34:37;;;;;;;15.10;8.20;;;24.70;47.40;;;;;;5101789;28;20410;-85
2021/07/08 09:37:10;;;;;;;13.20;8.70;;;24.80;47.30;;;;;;5104017;28;20403;-85
2021/07/08 09:39:43;;;;;;;9.00;6.67;;;25.00;46.90;;;;;;5103584;28;20473;-86
2021/07/08 09:42:11;;;;;;;14.80;7.13;;;25.00;47.60;;;;;;5105863;28;20441;-85
2021/07/08 09:44:37;;;;;;;14.73;7.50;;;25.20;47.40;;;;;;5111504;28;20409;-84
2021/07/08 09:47:04;;;;;;;14.03;6.60;;;25.40;45.70;;;;;;5107992;28;20457;-86
2021/07/08 09:49:30;;;;;;;9.83;5.63;;;25.60;45.30;;;;;;5109834;28;20832;-86
2021/07/08 09:51:57;;;;;;;10.67;6.67;;;25.60;45.90;;;;;;5122354;28;20495;-85
2021/07/08 09:54:47;;;;;;;9.60;6.23;;;25.70;46.00;;;;;;5122463;28;20413;-86
2021/07/08 09:57:32;;;;;;;9.77;6.37;;;25.70;46.00;;;;;;5121802;28;20461;-86
2021/07/08 09:59:59;;;;;;;9.13;6.63;;;25.90;45.10;;;;;;5122871;28;20436;-86
2021/07/08 10:02:33;;;;;;;7.10;6.10;;;25.90;45.30;;;;;;5119945;28;20464;-86
2021/07/08 10:05:00;;;;;;;9.73;6.57;;;25.90;44.70;;;;;;5117898;28;20410;-85
2021/07/08 10:07:27;;;;;;;10.63;5.63;;;26.10;45.00;;;;;;5118407;28;20422;-86
2021/07/08 10:09:52;;;;;;;14.70;7.23;;;26.10;44.50;;;;;;5120309;28;20491;-86
2021/07/08 10:12:18;;;;;;;20.03;8.07;;;26.30;43.70;;;;;;5116456;28;20465;-86
2021/07/08 10:14:47;;;;;;;7.67;6.60;;;26.40;41.70;;;;;;5110906;28;20277;-86
2021/07/08 10:17:16;;;;;;;9.40;5.90;;;26.60;41.50;;;;;;5099002;28;20406;-86
2021/07/08 10:19:45;;;;;;;14.93;5.80;;;26.70;40.40;;;;;;5095638;28;20423;-86
2021/07/08 10:22:12;;;;;;;11.13;6.40;;;26.80;40.80;;;;;;5097557;28;20446;-86
2021/07/08 10:24:38;;;;;;;8.87;6.57;;;26.60;40.90;;;;;;5098922;28;20491;-86
2021/07/08 10:27:06;;;;;;;6.70;4.67;;;26.40;41.30;;;;;;5101620;28;20905;-86
2021/07/08 10:29:32;;;;;;;7.50;5.53;;;26.40;41.30;;;;;;5097933;28;20191;-86
2021/07/08 10:31:58;;;;;;;7.73;6.10;;;26.30;41.20;;;;;;5096260;28;20580;-87
2021/07/08 10:34:24;;;;;;;10.53;7.13;;;26.20;41.50;;;;;;5101931;28;20411;-87
2021/07/08 10:36:54;;;;;;;9.47;4.90;;;25.90;41.90;;;;;;5098342;28;20419;-87
2021/07/08 10:39:22;;;;;;;15.57;6.30;;;25.60;41.80;;;;;;5097637;28;20179;-87
2021/07/08 10:41:58;;;;;;;8.27;6.57;;;25.40;41.50;;;;;;5097643;28;20426;-87
2021/07/08 10:44:40;;;;;;;9.93;6.83;;;25.20;42.20;;;;;;5096335;28;20412;-87
2021/07/08 10:47:30;;;;;;;12.20;6.10;;;25.30;42.60;;;;;;5103830;28;20456;-86
2021/07/08 10:49:56;;;;;;;10.23;6.37;;;25.60;43.00;;;;;;5112418;28;20490;-86
2021/07/08 10:52:45;;;;;;;11.00;6.80;;;25.90;42.20;;;;;;5113965;28;20464;-87
2021/07/08 10:55:31;;;;;;;9.70;6.07;;;26.10;42.00;;;;;;5096066;28;20626;-86
2021/07/08 10:57:57;;;;;;;14.37;6.23;;;26.30;40.60;;;;;;5093925;28;21019;-86
2021/07/08 11:00:43;;;;;;;12.30;5.67;;;26.20;41.10;;;;;;5094679;28;20411;-87
2021/07/08 11:03:36;;;;;;;7.00;5.57;;;26.40;39.70;;;;;;5095520;28;20540;-86
2021/07/08 11:06:29;;;;;;;7.03;4.83;;;26.60;39.30;;;;;;5095659;28;20421;-87
2021/07/08 11:09:16;;;;;;;9.80;7.43;;;26.80;38.90;;;;;;5088564;28;20427;-86
2021/07/08 11:11:45;;;;;;;8.00;5.97;;;26.50;39.00;;;;;;5093829;28;20447;-87
2021/07/08 11:14:15;;;;;;;11.10;6.60;;;26.50;39.10;;;;;;5094258;28;20518;-86
2021/07/08 11:16:59;;;;;;;8.63;6.00;;;26.60;39.00;;;;;;5094647;28;20502;-86
2021/07/08 11:19:25;;;;;;;9.23;5.40;;;26.80;39.20;;;;;;5094091;28;20855;-86
2021/07/08 11:21:54;;;;;;;6.83;5.80;;;27.10;39.10;;;;;;5094522;28;20448;-86
2021/07/08 11:24:32;;;;;;;10.27;7.13;;;27.30;38.90;;;;;;5095492;28;20176;-86
2021/07/08 11:26:59;;;;;;;8.40;6.27;;;27.30;37.70;;;;;;5098075;28;20942;-86
2021/07/08 11:29:35;;;;;;;5.17;4.70;;;27.50;37.60;;;;;;5097145;28;20408;-86
2021/07/08 11:32:20;;;;;;;12.87;9.50;;;27.60;38.50;;;;;;5094467;28;20466;-86
2021/07/08 11:34:54;;;;;;;11.40;9.43;;;27.30;39.30;;;;;;5094813;28;20405;-86
2021/07/08 11:37:41;;;;;;;14.33;10.20;;;26.70;41.70;;;;;;5093869;28;20413;-86
2021/07/08 11:40:17;;;;;;;14.03;10.00;;;25.90;43.50;;;;;;5093985;28;20490;-86
2021/07/08 11:42:45;;;;;;;10.97;8.53;;;25.70;45.20;;;;;;5098372;28;20452;-85
2021/07/08 11:45:15;;;;;;;13.30;11.43;;;25.40;46.50;;;;;;5096618;28;20437;-86
2021/07/08 11:47:42;;;;;;;16.07;13.60;;;25.20;47.20;;;;;;5093842;28;20570;-86
2021/07/08 11:50:26;;;;;;;15.10;10.43;;;24.90;47.70;;;;;;5110342;28;20942;-86
2021/07/08 11:53:16;;;;;;;12.13;10.40;;;24.80;48.30;;;;;;5112820;28;20552;-85
2021/07/08 11:55:44;;;;;;;16.07;10.53;;;24.50;48.80;;;;;;5096336;28;20405;-85
2021/07/08 11:58:11;;;;;;;13.60;10.43;;;24.60;48.20;;;;;;5098796;28;20916;-86
2021/07/08 12:00:47;;;;;;;9.77;8.00;;;24.80;48.40;;;;;;5098242;28;20772;-86
2021/07/08 12:03:44;;;;;;;12.30;9.00;;;25.20;47.50;;;;;;5099906;28;20417;-86
2021/07/08 12:06:13;;;;;;;19.33;10.43;;;25.60;45.40;;;;;;5100086;28;20414;-86
2021/07/08 12:08:44;;;;;;;15.07;10.33;;;25.60;44.70;;;;;;5098149;28;20441;-86
2021/07/08 12:11:15;;;;;;;11.57;10.27;;;25.70;43.50;;;;;;5097573;28;20516;-86
2021/07/08 12:13:48;;;;;;;15.83;11.50;;;25.80;44.80;;;;;;5098055;28;20453;-86
2021/07/08 12:16:16;;;;;;;16.03;11.80;;;25.90;45.30;;;;;;5097554;28;20409;-86
2021/07/08 12:18:50;;;;;;;14.60;10.73;;;25.90;45.40;;;;;;5097658;28;20446;-86
2021/07/08 12:21:25;;;;;;;18.83;11.90;;;25.70;45.50;;;;;;5099294;28;20461;-85
2021/07/08 12:23:53;;;;;;;14.00;12.10;;;25.80;45.80;;;;;;5100560;28;20401;-86
2021/07/08 12:26:34;;;;;;;22.67;14.17;;;25.60;46.20;;;;;;5104229;28;20415;-86
2021/07/08 12:29:29;;;;;;;18.27;12.20;;;25.60;46.10;;;;;;5097774;28;20413;-86
2021/07/08 12:32:03;;;;;;;13.70;10.90;;;25.40;46.80;;;;;;5098008;28;20996;-86
2021/07/08 12:34:51;;;;;;;13.60;11.33;;;25.50;46.90;;;;;;5098744;28;20402;-86
2021/07/08 12:37:25;;;;;;;15.67;11.93;;;25.20;47.10;;;;;;5100830;28;20824;-86
2021/07/08 12:39:53;;;;;;;13.77;9.80;;;25.40;46.60;;;;;;5099932;28;20955;-87
2021/07/08 12:42:22;;;;;;;12.10;8.27;;;25.40;46.40;;;;;;5096444;28;20441;-87
2021/07/08 12:44:49;;;;;;;13.13;8.50;;;25.80;45.40;;;;;;5098063;28;20406;-87
2021/07/08 12:47:17;;;;;;;12.30;9.13;;;25.90;44.80;;;;;;5097627;28;20951;-86
2021/07/08 12:49:45;;;;;;;14.03;10.33;;;25.80;45.40;;;;;;5110910;28;20814;-86
2021/07/08 12:52:11;;;;;;;9.93;8.70;;;25.90;45.50;;;;;;5116121;28;20460;-86